createdAt,value
2023-03-05T00:01:53.449Z,2.60
2023-03-05T00:04:57.660Z,2.40
2023-03-05T00:08:02.000Z,1.75
2023-03-05T00:11:08.805Z,2.20
2023-03-05T00:14:13.372Z,2.60
2023-03-05T00:17:17.606Z,2.10
2023-03-05T00:20:21.541Z,1.98
2023-03-05T00:23:26.158Z,2.30
2023-03-05T00:26:30.877Z,1.92
2023-03-05T00:29:34.827Z,2.00
2023-03-05T00:32:39.260Z,2.00
2023-03-05T00:35:46.219Z,2.13
2023-03-05T00:38:51.080Z,2.28
2023-03-05T00:41:55.469Z,2.05
2023-03-05T00:44:59.620Z,1.92
2023-03-05T00:48:04.287Z,2.35
2023-03-05T00:51:09.301Z,2.20
2023-03-05T00:54:13.155Z,2.17
2023-03-05T00:57:17.610Z,1.83
2023-03-05T01:00:21.775Z,1.70
2023-03-05T01:03:26.009Z,1.42
2023-03-05T01:06:30.081Z,1.35
2023-03-05T01:09:34.350Z,1.45
2023-03-05T01:12:39.482Z,1.55
2023-03-05T01:15:43.464Z,1.40
2023-03-05T01:18:47.374Z,1.42
2023-03-05T01:21:51.381Z,1.13
2023-03-05T01:24:55.610Z,1.45
2023-03-05T01:27:59.823Z,1.70
2023-03-05T01:31:07.882Z,1.70
2023-03-05T01:34:11.855Z,1.55
2023-03-05T01:37:15.835Z,1.50
2023-03-05T01:40:26.037Z,1.80
2023-03-05T01:43:31.058Z,1.40
2023-03-05T01:46:37.349Z,1.83
2023-03-05T01:49:41.758Z,1.48
2023-03-05T01:52:52.499Z,1.67
2023-03-05T01:55:57.477Z,1.55
2023-03-05T01:59:05.076Z,1.65
2023-03-05T02:02:09.319Z,1.70
2023-03-05T02:05:18.205Z,2.10
2023-03-05T02:08:22.658Z,1.75
2023-03-05T02:11:26.639Z,1.55
2023-03-05T02:14:31.308Z,1.35
2023-03-05T02:17:35.278Z,1.33
2023-03-05T02:20:50.692Z,1.60
2023-03-05T02:23:54.857Z,1.48
2023-03-05T02:26:59.103Z,1.73
2023-03-05T02:30:03.832Z,1.80
2023-03-05T02:33:08.396Z,1.50
2023-03-05T02:36:13.086Z,1.77
2023-03-05T02:39:18.018Z,1.42
2023-03-05T02:42:22.155Z,1.80
2023-03-05T02:45:26.402Z,1.45
2023-03-05T02:48:31.132Z,1.70
2023-03-05T02:51:35.133Z,1.98
2023-03-05T02:54:39.230Z,2.65
2023-03-05T02:57:43.592Z,2.78
2023-03-05T03:00:48.071Z,2.67
2023-03-05T03:03:52.136Z,2.90
2023-03-05T03:06:55.945Z,2.50
2023-03-05T03:09:59.911Z,2.58
2023-03-05T03:13:04.019Z,2.17
2023-03-05T03:16:11.521Z,3.47
2023-03-05T03:19:15.585Z,2.80
2023-03-05T03:22:19.713Z,2.70
2023-03-05T03:25:23.707Z,2.40
2023-03-05T03:28:27.920Z,2.53
2023-03-05T03:31:31.948Z,2.83
2023-03-05T03:34:36.252Z,2.42
2023-03-05T03:37:40.597Z,2.30
2023-03-05T03:40:44.395Z,2.60
2023-03-05T03:43:48.657Z,2.50
2023-03-05T03:46:54.569Z,2.05
2023-03-05T03:50:01.590Z,2.40
2023-03-05T03:53:06.236Z,2.50
2023-03-05T03:56:10.624Z,2.10
2023-03-05T03:59:14.943Z,2.40
2023-03-05T04:02:18.883Z,2.10
2023-03-05T04:05:23.241Z,2.50
2023-03-05T04:08:27.203Z,2.78
2023-03-05T04:11:31.614Z,1.88
2023-03-05T04:14:36.140Z,2.03
2023-03-05T04:17:40.344Z,1.90
2023-03-05T04:20:44.372Z,2.10
2023-03-05T04:23:48.460Z,2.05
2023-03-05T04:26:52.695Z,1.88
2023-03-05T04:29:56.990Z,1.70
2023-03-05T04:33:01.036Z,1.67
2023-03-05T04:36:05.832Z,1.50
2023-03-05T04:39:10.188Z,1.42
2023-03-05T04:42:14.444Z,1.70
2023-03-05T04:45:18.359Z,1.90
2023-03-05T04:48:22.529Z,1.50
2023-03-05T04:51:26.843Z,1.50
2023-03-05T04:54:30.684Z,1.40
2023-03-05T04:57:35.705Z,1.40
2023-03-05T05:00:39.579Z,1.42
2023-03-05T05:03:43.754Z,1.20
2023-03-05T05:06:47.732Z,1.23
2023-03-05T05:09:51.867Z,1.08
2023-03-05T05:12:55.784Z,1.50
2023-03-05T05:16:00.046Z,1.40
2023-03-05T05:19:04.203Z,1.40
2023-03-05T05:22:08.235Z,1.38
2023-03-05T05:25:12.604Z,1.65
2023-03-05T05:28:16.605Z,1.92
2023-03-05T05:31:21.023Z,2.60
2023-03-05T05:34:25.830Z,2.50
2023-03-05T05:37:30.249Z,3.25
2023-03-05T05:40:34.351Z,3.47
2023-03-05T05:43:38.782Z,3.63
2023-03-05T05:46:43.279Z,3.15
2023-03-05T05:49:47.626Z,2.60
2023-03-05T05:52:54.832Z,1.77
2023-03-05T05:55:59.110Z,2.25
2023-03-05T05:59:03.193Z,1.70
2023-03-05T06:02:08.322Z,1.48
2023-03-05T06:05:14.779Z,1.60
2023-03-05T06:08:19.090Z,1.30
2023-03-05T06:11:24.106Z,1.40
2023-03-05T06:14:28.146Z,1.17
2023-03-05T06:17:31.862Z,1.30
2023-03-05T06:20:35.829Z,1.25
2023-03-05T06:23:40.614Z,1.20
2023-03-05T06:26:46.687Z,1.20
2023-03-05T06:29:53.427Z,1.08
2023-03-05T06:32:57.292Z,1.20
2023-03-05T06:36:06.844Z,1.60
2023-03-05T06:39:10.784Z,1.27
2023-03-05T06:42:17.644Z,1.20
2023-03-05T06:45:21.460Z,1.33
2023-03-05T06:48:25.775Z,1.40
2023-03-05T06:51:32.934Z,1.58
2023-03-05T06:54:36.878Z,1.83
2023-03-05T06:57:41.151Z,2.13
2023-03-05T07:00:45.255Z,2.25
2023-03-05T07:03:54.646Z,2.30
2023-03-05T07:06:59.190Z,1.92
2023-03-05T07:10:04.541Z,2.05
2023-03-05T07:13:08.697Z,1.90
2023-03-05T07:16:24.468Z,1.95
2023-03-05T07:19:28.279Z,1.48
2023-03-05T07:22:32.583Z,2.42
2023-03-05T07:25:37.303Z,1.70
2023-03-05T07:28:41.822Z,2.00
2023-03-05T07:31:45.430Z,1.65
2023-03-05T07:34:49.616Z,1.70
2023-03-05T07:37:55.824Z,1.63
2023-03-05T07:41:04.715Z,1.70
2023-03-05T07:44:09.715Z,1.70
2023-03-05T07:47:14.097Z,2.17
2023-03-05T07:50:18.522Z,1.90
2023-03-05T07:53:22.481Z,1.80
2023-03-05T07:56:32.037Z,2.38
2023-03-05T07:59:36.030Z,1.98
2023-03-05T08:02:40.350Z,1.65
2023-03-05T08:05:45.064Z,2.10
2023-03-05T08:08:49.424Z,2.13
2023-03-05T08:11:53.676Z,2.03
2023-03-05T08:14:57.460Z,2.33
2023-03-05T08:18:01.468Z,2.75
2023-03-05T08:21:06.568Z,2.40
2023-03-05T08:24:12.229Z,2.05
2023-03-05T08:27:16.318Z,2.22
2023-03-05T08:30:22.380Z,2.17
2023-03-05T08:33:26.371Z,2.30
2023-03-05T08:36:30.924Z,2.70
2023-03-05T08:39:36.827Z,2.53
2023-03-05T08:42:40.900Z,2.00
2023-03-05T08:45:44.663Z,2.55
2023-03-05T08:48:48.874Z,2.03
2023-03-05T08:51:52.913Z,2.38
2023-03-05T08:54:57.581Z,2.10
2023-03-05T08:58:01.835Z,2.90
2023-03-05T09:01:06.126Z,2.15
2023-03-05T09:04:10.017Z,2.13
2023-03-05T09:07:14.239Z,2.10
2023-03-05T09:10:19.230Z,2.17
2023-03-05T09:13:23.259Z,1.90
2023-03-05T09:16:27.711Z,2.05
2023-03-05T09:19:31.635Z,1.83
2023-03-05T09:22:35.687Z,1.88
2023-03-05T09:25:42.579Z,1.90
2023-03-05T09:28:47.325Z,2.10
2023-03-05T09:31:51.720Z,1.80
2023-03-05T09:34:55.518Z,2.10
2023-03-05T09:37:59.197Z,1.95
2023-03-05T09:41:09.857Z,1.83
2023-03-05T09:44:35.320Z,2.60
2023-03-05T09:47:57.278Z,2.10
2023-03-05T09:51:03.259Z,2.45
2023-03-05T09:54:17.392Z,2.33
2023-03-05T09:57:33.958Z,2.30
2023-03-05T10:00:47.938Z,2.90
2023-03-05T10:04:23.922Z,2.65
2023-03-05T10:07:33.449Z,2.22
2023-03-05T10:10:40.176Z,2.53
2023-03-05T10:13:45.433Z,2.28
2023-03-05T10:16:55.126Z,2.20
2023-03-05T10:20:24.323Z,2.28
2023-03-05T10:23:41.864Z,2.30
2023-03-05T10:26:54.668Z,2.30
2023-03-05T10:30:01.560Z,2.60
2023-03-05T10:33:26.884Z,2.35
2023-03-05T10:36:31.015Z,2.50
2023-03-05T10:39:40.889Z,2.70
2023-03-05T10:43:03.398Z,2.70
2023-03-05T10:46:16.026Z,2.53
2023-03-05T10:49:26.724Z,2.33
2023-03-05T10:52:40.548Z,2.17
2023-03-05T10:55:44.788Z,2.17
2023-03-05T10:58:48.964Z,2.13
2023-03-05T11:02:08.481Z,2.13
2023-03-05T11:05:31.711Z,2.20
2023-03-05T11:08:36.777Z,2.13
2023-03-05T11:11:40.758Z,2.30
2023-03-05T11:14:46.919Z,2.47
2023-03-05T11:18:18.107Z,2.28
2023-03-05T11:21:27.757Z,2.58
2023-03-05T11:24:31.785Z,2.50
2023-03-05T11:27:41.208Z,2.80
2023-03-05T11:30:56.001Z,2.60
2023-03-05T11:34:18.684Z,2.22
2023-03-05T11:37:28.988Z,2.72
2023-03-05T11:40:37.396Z,3.00
2023-03-05T11:43:43.910Z,2.30
2023-03-05T11:46:52.642Z,2.13
2023-03-05T11:50:23.139Z,1.77
2023-03-05T11:53:29.501Z,1.77
2023-03-05T11:56:37.386Z,1.60
2023-03-05T11:59:42.973Z,1.48
2023-03-05T12:02:52.108Z,1.90
2023-03-05T12:06:12.993Z,1.70
2023-03-05T12:09:47.868Z,1.65
2023-03-05T12:13:06.891Z,1.42
2023-03-05T12:16:28.129Z,1.60
2023-03-05T12:19:41.296Z,1.52
2023-03-05T12:22:45.789Z,3.75
2023-03-05T12:25:57.016Z,1.70
2023-03-05T12:29:01.334Z,1.65
2023-03-05T12:32:28.940Z,1.42
2023-03-05T12:35:37.532Z,1.40
2023-03-05T12:38:41.870Z,1.70
2023-03-05T12:41:46.229Z,1.73
2023-03-05T12:45:14.544Z,1.70
2023-03-05T12:48:18.420Z,2.00
2023-03-05T12:51:32.103Z,2.58
2023-03-05T12:54:41.182Z,2.05
2023-03-05T12:57:46.096Z,1.92
2023-03-05T13:00:55.934Z,1.60
2023-03-05T13:04:14.595Z,1.50
2023-03-05T13:07:19.261Z,1.40
2023-03-05T13:10:28.797Z,1.67
2023-03-05T13:13:38.176Z,1.90
2023-03-05T13:16:42.842Z,1.55
2023-03-05T13:19:47.131Z,1.30
2023-03-05T13:23:18.817Z,1.17
2023-03-05T13:26:22.599Z,1.25
2023-03-05T13:29:28.360Z,1.38
2023-03-05T13:32:33.370Z,1.55
2023-03-05T13:35:44.938Z,2.70
2023-03-05T13:38:49.765Z,1.80
2023-03-05T13:42:05.752Z,1.75
2023-03-05T13:45:31.822Z,2.33
2023-03-05T13:48:36.255Z,2.20
2023-03-05T13:51:43.068Z,2.30
2023-03-05T13:54:47.307Z,2.40
2023-03-05T13:57:55.573Z,2.95
2023-03-05T14:01:14.971Z,2.40
2023-03-05T14:04:30.752Z,1.70
2023-03-05T14:07:41.082Z,1.65
2023-03-05T14:10:45.223Z,1.40
2023-03-05T14:14:00.211Z,1.50
2023-03-05T14:17:42.298Z,1.40
2023-03-05T14:21:03.849Z,1.42
2023-03-05T14:24:21.626Z,1.30
2023-03-05T14:27:25.946Z,1.13
2023-03-05T14:30:30.912Z,1.10
2023-03-05T14:33:35.057Z,1.35
2023-03-05T14:36:40.616Z,1.10
2023-03-05T14:39:54.830Z,1.00
2023-03-05T14:43:00.440Z,1.10
2023-03-05T14:46:04.362Z,1.10
2023-03-05T14:49:08.790Z,1.30
2023-03-05T14:52:19.342Z,1.35
2023-03-05T14:55:26.139Z,1.50
2023-03-05T14:58:35.480Z,1.40
2023-03-05T15:01:39.729Z,1.92
2023-03-05T15:04:46.401Z,1.70
2023-03-05T15:07:51.382Z,3.38
2023-03-05T15:10:55.781Z,1.40
2023-03-05T15:13:59.758Z,2.05
2023-03-05T15:17:03.942Z,1.67
2023-03-05T15:20:30.581Z,1.10
2023-03-05T15:23:38.122Z,1.60
2023-03-05T15:26:42.179Z,1.45
2023-03-05T15:29:46.471Z,1.50
2023-03-05T15:32:52.496Z,1.40
2023-03-05T15:35:57.616Z,1.70
2023-03-05T15:39:01.840Z,2.10
2023-03-05T15:42:06.580Z,1.52
2023-03-05T15:45:11.109Z,1.80
2023-03-05T15:48:15.213Z,1.60
2023-03-05T15:51:20.390Z,1.50
2023-03-05T15:54:24.292Z,1.30
2023-03-05T15:57:28.367Z,1.42
2023-03-05T16:00:35.868Z,1.73
2023-03-05T16:03:40.088Z,2.20
2023-03-05T16:06:47.571Z,2.10
2023-03-05T16:09:52.105Z,1.90
2023-03-05T16:13:04.619Z,2.05
2023-03-05T16:16:09.726Z,1.60
2023-03-05T16:19:16.801Z,1.40
2023-03-05T16:22:21.010Z,1.77
2023-03-05T16:25:25.263Z,1.40
2023-03-05T16:28:29.038Z,2.08
2023-03-05T16:31:34.842Z,1.73
2023-03-05T16:34:38.890Z,1.70
2023-03-05T16:37:43.250Z,1.65
2023-03-05T16:41:09.306Z,1.55
2023-03-05T16:44:11.767Z,1.60
2023-03-05T16:47:15.854Z,1.65
2023-03-05T16:50:19.862Z,1.88
2023-03-05T16:53:24.208Z,1.77
2023-03-05T16:56:28.665Z,1.60
2023-03-05T16:59:33.147Z,1.92
2023-03-05T17:02:37.550Z,1.88
2023-03-05T17:05:41.581Z,2.97
2023-03-05T17:08:46.683Z,2.30
2023-03-05T17:11:52.020Z,2.28
2023-03-05T17:14:56.458Z,2.20
2023-03-05T17:18:01.196Z,1.95
2023-03-05T17:21:07.471Z,2.15
2023-03-05T17:24:12.128Z,3.03
2023-03-05T17:27:18.757Z,1.75
2023-03-05T17:30:23.030Z,2.47
2023-03-05T17:33:28.951Z,3.78
2023-03-05T17:36:33.414Z,3.60
2023-03-05T17:39:38.446Z,3.72
2023-03-05T17:42:42.448Z,3.00
2023-03-05T17:45:47.410Z,7.85
2023-03-05T17:48:51.836Z,5.70
2023-03-05T17:51:56.450Z,3.40
2023-03-05T17:55:00.943Z,3.15
2023-03-05T17:58:04.799Z,2.45
2023-03-05T18:01:09.473Z,2.70
2023-03-05T18:04:15.234Z,2.60
2023-03-05T18:07:19.741Z,2.67
2023-03-05T18:10:25.296Z,2.80
2023-03-05T18:13:29.222Z,3.97
2023-03-05T18:16:34.663Z,2.80
2023-03-05T18:19:38.468Z,2.75
2023-03-05T18:22:42.683Z,2.50
2023-03-05T18:25:47.478Z,2.80
2023-03-05T18:28:51.842Z,2.47
2023-03-05T18:31:56.162Z,3.10
2023-03-05T18:34:59.825Z,3.20
2023-03-05T18:38:03.788Z,3.00
2023-03-05T18:41:08.277Z,3.30
2023-03-05T18:44:13.392Z,3.22
2023-03-05T18:47:17.724Z,2.92
2023-03-05T18:50:24.646Z,2.70
2023-03-05T18:53:28.628Z,2.58
2023-03-05T18:56:33.584Z,2.60
2023-03-05T18:59:37.943Z,2.72
2023-03-05T19:02:42.227Z,2.45
2023-03-05T19:05:46.267Z,3.55
2023-03-05T19:08:56.930Z,3.20
2023-03-05T19:12:00.795Z,3.90
2023-03-05T19:15:06.417Z,3.42
2023-03-05T19:18:10.249Z,3.90
2023-03-05T19:21:17.410Z,4.00
2023-03-05T19:24:23.741Z,4.45
2023-03-05T19:27:28.385Z,3.88
2023-03-05T19:30:32.717Z,4.28
2023-03-05T19:33:36.877Z,3.92
2023-03-05T19:36:41.154Z,3.83
2023-03-05T19:39:45.368Z,3.92
2023-03-05T19:42:49.595Z,3.65
2023-03-05T19:46:00.475Z,3.67
2023-03-05T19:49:04.678Z,3.92
2023-03-05T19:52:08.822Z,3.50
2023-03-05T19:55:12.989Z,3.97
2023-03-05T19:58:17.096Z,3.25
2023-03-05T20:01:27.110Z,2.92
2023-03-05T20:04:31.544Z,2.53
2023-03-05T20:07:35.842Z,2.70
2023-03-05T20:10:39.958Z,3.40
2023-03-05T20:13:44.422Z,2.70
2023-03-05T20:16:48.528Z,2.70
2023-03-05T20:19:52.336Z,2.50
2023-03-05T20:22:56.886Z,2.33
2023-03-05T20:26:00.969Z,2.10
2023-03-05T20:29:06.296Z,2.20
2023-03-05T20:32:10.366Z,2.20
2023-03-05T20:35:17.090Z,2.42
2023-03-05T20:38:25.388Z,2.17
2023-03-05T20:41:30.533Z,2.40
2023-03-05T20:44:34.668Z,2.55
2023-03-05T20:47:44.661Z,2.80
2023-03-05T20:50:48.947Z,2.47
2023-03-05T20:53:58.054Z,2.75
2023-03-05T20:57:02.428Z,2.60
2023-03-05T21:00:07.860Z,2.25
2023-03-05T21:03:11.857Z,2.83
2023-03-05T21:06:16.764Z,2.50
2023-03-05T21:09:21.356Z,2.50
2023-03-05T21:12:25.755Z,2.72
2023-03-05T21:15:30.779Z,2.75
2023-03-05T21:18:35.232Z,2.47
2023-03-05T21:21:40.385Z,2.20
2023-03-05T21:25:02.022Z,2.35
2023-03-05T21:28:08.306Z,2.40
2023-03-05T21:31:19.055Z,2.50
2023-03-05T21:34:23.094Z,2.70
2023-03-05T21:37:27.397Z,2.70
2023-03-05T21:40:33.387Z,2.78
2023-03-05T21:43:37.776Z,2.60
2023-03-05T21:46:42.734Z,2.72
2023-03-05T21:49:46.848Z,2.58
2023-03-05T21:52:51.883Z,2.90
2023-03-05T21:56:25.509Z,2.38
2023-03-05T22:02:34.085Z,2.70
2023-03-05T22:05:38.361Z,3.03
2023-03-05T22:08:42.910Z,2.85
2023-03-05T22:11:47.386Z,3.03
2023-03-05T22:14:51.715Z,3.25
2023-03-05T22:17:55.705Z,3.20
2023-03-05T22:21:00.486Z,3.03
2023-03-05T22:24:05.158Z,2.90
2023-03-05T22:27:09.526Z,3.17
2023-03-05T22:30:13.939Z,2.70
2023-03-05T22:33:17.977Z,3.58
2023-03-05T22:36:22.817Z,2.97
2023-03-05T22:39:26.746Z,3.40
2023-03-05T22:42:30.820Z,3.83
2023-03-05T22:45:35.452Z,4.00
2023-03-05T22:48:39.454Z,3.60
2023-03-05T22:51:43.568Z,3.95
2023-03-05T22:54:47.788Z,4.18
2023-03-05T22:57:52.314Z,4.55
2023-03-05T23:00:56.352Z,4.20
2023-03-05T23:04:08.086Z,4.47
2023-03-05T23:07:12.441Z,4.78
2023-03-05T23:10:26.956Z,4.60
2023-03-05T23:13:31.237Z,4.82
2023-03-05T23:16:35.459Z,4.53
2023-03-05T23:19:39.954Z,4.60
2023-03-05T23:22:45.159Z,5.07
2023-03-05T23:25:51.625Z,4.95
2023-03-05T23:28:55.546Z,4.82
2023-03-05T23:32:00.197Z,5.20
2023-03-05T23:35:04.601Z,5.25
2023-03-05T23:38:12.819Z,4.85
2023-03-05T23:41:16.648Z,5.63
2023-03-05T23:44:20.820Z,5.20
2023-03-05T23:47:25.372Z,5.28
2023-03-05T23:50:32.927Z,5.28
2023-03-05T23:53:37.602Z,5.43
2023-03-05T23:56:41.675Z,5.60
2023-03-05T23:59:45.740Z,5.57
